Time;durP1;ratioP1;P1;durP2;ratioP2;P2;SDS_P1;SDS_P2;PMS_P1;PMS_P2;Temp;Humidity;BMP_temperature;BMP_pressure;BME280_temperature;BME280_humidity;BME280_pressure;Samples;Min_cycle;Max_cycle;Signal;HPM_P1;HPM_P2
2024/03/04 00:02:34;;;;;;;7.85;4.90;;;;;;;11.58;100.00;101195.03;10489544;28;20110;-76
2024/03/04 00:07:57;;;;;;;10.77;7.50;;;;;;;11.62;100.00;101203.91;10477334;28;20052;-76
2024/03/04 00:13:20;;;;;;;14.95;7.65;;;;;;;11.51;100.00;101208.09;10462072;28;20177;-76
2024/03/04 00:18:44;;;;;;;12.63;4.00;;;;;;;11.72;100.00;101215.53;10504143;27;20040;-76
2024/03/04 00:24:07;;;;;;;7.80;3.85;;;;;;;11.86;100.00;101212.31;10503875;28;20080;-76
2024/03/04 00:29:30;;;;;;;11.40;9.38;;;;;;;11.92;100.00;101214.19;10489211;28;20093;-76
2024/03/04 00:34:54;;;;;;;18.23;11.45;;;;;;;11.71;100.00;101204.06;10502291;28;20043;-76
2024/03/04 00:40:17;;;;;;;10.35;5.28;;;;;;;11.52;100.00;101207.25;10483909;28;20112;-77
2024/03/04 00:45:40;;;;;;;11.95;7.55;;;;;;;11.47;100.00;101211.56;10437744;28;20055;-77
2024/03/04 00:51:04;;;;;;;10.50;6.60;;;;;;;11.33;100.00;101211.28;10515888;28;20044;-76
2024/03/04 00:56:27;;;;;;;14.85;7.75;;;;;;;11.41;100.00;101212.34;10475646;28;20037;-76
2024/03/04 01:01:50;;;;;;;7.82;4.90;;;;;;;11.84;100.00;101202.56;10500063;28;20724;-76
2024/03/04 01:07:15;;;;;;;8.43;3.97;;;;;;;12.19;100.00;101200.53;10515474;28;20040;-74
2024/03/04 01:12:37;;;;;;;8.90;4.10;;;;;;;12.46;100.00;101198.31;10488198;28;20114;-75
2024/03/04 01:18:00;;;;;;;13.70;4.70;;;;;;;12.57;100.00;101194.03;10489639;28;20044;-75
2024/03/04 01:23:24;;;;;;;14.20;9.23;;;;;;;12.54;100.00;101188.69;10472789;28;20067;-75
2024/03/04 01:28:49;;;;;;;28.05;23.55;;;;;;;12.43;100.00;101192.94;10500513;28;20110;-75
2024/03/04 01:34:11;;;;;;;15.85;9.25;;;;;;;12.19;100.00;101187.28;10487833;28;20036;-76
2024/03/04 01:39:35;;;;;;;11.00;7.50;;;;;;;12.02;100.00;101184.34;10473908;28;20511;-75
2024/03/04 01:44:58;;;;;;;17.42;12.95;;;;;;;11.98;100.00;101179.88;10502189;28;20060;-75
2024/03/04 01:50:22;;;;;;;21.48;14.50;;;;;;;11.94;100.00;101180.72;10474635;28;20043;-75
2024/03/04 01:55:49;;;;;;;31.52;21.42;;;;;;;11.79;100.00;101183.09;10487154;28;20226;-75
2024/03/04 02:01:13;;;;;;;43.08;34.03;;;;;;;11.68;100.00;101182.88;10473647;28;20076;-75
2024/03/04 02:06:37;;;;;;;13.02;6.82;;;;;;;11.75;100.00;101195.34;10488538;28;20098;-76
2024/03/04 02:12:03;;;;;;;9.38;4.85;;;;;;;11.83;100.00;101183.16;10501266;28;20037;-75
2024/03/04 02:17:27;;;;;;;14.98;9.48;;;;;;;11.89;100.00;101185.91;10486894;28;20059;-76
2024/03/04 02:22:51;;;;;;;17.20;13.15;;;;;;;11.70;100.00;101186.41;10486174;28;20048;-75
2024/03/04 02:28:13;;;;;;;10.27;7.25;;;;;;;11.74;100.00;101182.13;10479581;28;20060;-75
2024/03/04 02:33:37;;;;;;;17.77;9.88;;;;;;;11.84;100.00;101179.66;10466063;28;20068;-76
2024/03/04 02:39:03;;;;;;;16.80;7.13;;;;;;;11.68;100.00;101174.06;10508399;28;20052;-75
2024/03/04 02:44:26;;;;;;;20.33;12.35;;;;;;;11.57;100.00;101184.41;10506039;28;20056;-75
2024/03/04 02:49:48;;;;;;;12.73;9.20;;;;;;;11.33;100.00;101169.00;10480264;28;20114;-75
2024/03/04 02:55:12;;;;;;;12.77;5.95;;;;;;;11.40;100.00;101180.59;10508132;28;20558;-75
2024/03/04 03:00:35;;;;;;;11.82;5.88;;;;;;;11.41;100.00;101195.59;10479299;28;20052;-75
2024/03/04 03:05:58;;;;;;;17.92;12.82;;;;;;;11.40;100.00;101199.97;10507883;28;20098;-75
2024/03/04 03:11:22;;;;;;;20.60;16.98;;;;;;;11.30;100.00;101194.47;10503637;28;20075;-75
2024/03/04 03:16:44;;;;;;;10.50;6.07;;;;;;;11.23;100.00;101198.75;10491977;28;20105;-75
2024/03/04 03:22:07;;;;;;;14.30;5.20;;;;;;;11.27;100.00;101207.63;10478511;28;20063;-76
2024/03/04 03:27:31;;;;;;;12.95;5.28;;;;;;;11.29;100.00;101208.56;10490583;28;20044;-75
2024/03/04 03:32:53;;;;;;;7.50;5.68;;;;;;;11.35;100.00;101212.22;10499488;28;20481;-75
2024/03/04 03:38:16;;;;;;;17.02;10.88;;;;;;;11.19;100.00;101215.41;10490640;28;20121;-76
2024/03/04 03:43:40;;;;;;;17.10;10.05;;;;;;;10.84;100.00;101212.03;10477827;28;20090;-75
2024/03/04 03:49:02;;;;;;;18.05;9.30;;;;;;;10.70;100.00;101221.38;10480920;28;20076;-75
2024/03/04 03:54:24;;;;;;;15.45;7.65;;;;;;;10.79;100.00;101221.59;10518620;28;20040;-76
2024/03/04 03:59:48;;;;;;;13.18;5.38;;;;;;;10.81;100.00;101214.59;10498415;28;20400;-75
2024/03/04 04:05:11;;;;;;;18.05;10.70;;;;;;;10.86;100.00;101219.97;10503585;28;20049;-76
2024/03/04 04:10:34;;;;;;;10.93;6.57;;;;;;;10.90;100.00;101213.91;10490355;28;20453;-75
2024/03/04 04:15:58;;;;;;;17.77;11.45;;;;;;;10.85;100.00;101205.00;10489279;28;20396;-75
2024/03/04 04:21:21;;;;;;;18.92;11.30;;;;;;;10.68;100.00;101208.16;10474345;28;20064;-76
2024/03/04 04:26:45;;;;;;;21.95;14.32;;;;;;;10.73;100.00;101216.19;10475450;28;20044;-74
2024/03/04 04:32:13;;;;;;;12.57;6.72;;;;;;;10.76;100.00;101221.56;10471792;28;20139;-75
2024/03/04 04:37:35;;;;;;;17.77;7.40;;;;;;;10.68;100.00;101218.72;10517874;28;20048;-76
2024/03/04 04:42:58;;;;;;;16.10;6.32;;;;;;;10.58;100.00;101219.38;10488568;28;20044;-75
2024/03/04 04:48:22;;;;;;;13.93;4.10;;;;;;;10.67;100.00;101216.94;10475103;28;20059;-76
2024/03/04 04:53:45;;;;;;;8.10;5.20;;;;;;;10.88;100.00;101211.25;10489486;28;20495;-75
2024/03/04 04:59:07;;;;;;;10.57;5.40;;;;;;;10.99;100.00;101214.09;10507378;28;20048;-74
2024/03/04 05:04:31;;;;;;;19.60;11.65;;;;;;;11.08;100.00;101228.41;10517425;28;20051;-75
2024/03/04 05:09:53;;;;;;;10.40;5.13;;;;;;;11.16;100.00;101224.16;10488532;28;20098;-75
2024/03/04 05:15:16;;;;;;;4.22;3.63;;;;;;;11.44;100.00;101222.97;10500899;28;20043;-76
2024/03/04 05:20:41;;;;;;;5.57;4.22;;;;;;;12.87;100.00;101230.66;10474365;28;20068;-76
2024/03/04 05:26:04;;;;;;;7.03;3.70;;;;;;;14.86;100.00;101211.41;10507216;28;20725;-75
2024/03/04 05:31:26;;;;;;;9.02;4.30;;;;;;;16.44;100.00;101209.09;10478233;28;20141;-75
2024/03/04 05:36:50;;;;;;;14.65;10.80;;;;;;;17.90;100.00;101201.44;10501453;28;20044;-76
2024/03/04 05:42:13;;;;;;;13.13;9.48;;;;;;;19.05;100.00;101199.44;10488449;28;20054;-76
2024/03/04 05:47:36;;;;;;;6.13;3.00;;;;;;;19.90;100.00;101202.72;10478255;28;20862;-75
2024/03/04 05:53:00;;;;;;;5.38;2.53;;;;;;;21.32;100.00;101212.69;10486688;28;20040;-75
2024/03/04 05:58:24;;;;;;;9.38;4.82;;;;;;;22.09;100.00;101199.28;10469985;28;20147;-76
2024/03/04 06:03:46;;;;;;;10.70;5.53;;;;;;;22.63;100.00;101204.16;10507823;28;20041;-76
2024/03/04 06:09:10;;;;;;;12.52;7.25;;;;;;;22.88;100.00;101202.59;10495101;28;20051;-75
2024/03/04 06:14:33;;;;;;;7.20;4.15;;;;;;;23.63;100.00;101206.66;10493233;28;20145;-76
2024/03/04 06:19:55;;;;;;;6.32;1.80;;;;;;;23.83;96.53;101204.22;10521177;28;20139;-76
2024/03/04 06:25:19;;;;;;;3.30;1.75;;;;;;;24.22;95.88;101204.75;10506283;28;20063;-76
2024/03/04 06:30:42;;;;;;;6.38;2.13;;;;;;;25.47;82.04;101199.38;10509216;28;20049;-76
2024/03/04 06:36:05;;;;;;;7.70;4.32;;;;;;;25.93;76.89;101199.31;10476727;28;20082;-76
2024/03/04 06:41:29;;;;;;;7.78;2.85;;;;;;;26.44;72.21;101217.06;10493592;28;20114;-76
2024/03/04 06:46:51;;;;;;;7.38;3.25;;;;;;;26.84;62.50;101227.06;10477634;28;20067;-76
2024/03/04 06:52:14;;;;;;;16.25;8.48;;;;;;;26.94;59.76;101213.03;10480355;28;20366;-76
2024/03/04 06:57:38;;;;;;;14.63;7.28;;;;;;;28.20;54.55;101216.16;10514303;28;20060;-80
2024/03/04 07:03:00;;;;;;;31.90;24.75;;;;;;;29.16;48.93;101215.59;10519796;28;20396;-77
2024/03/04 07:08:23;;;;;;;8.60;4.00;;;;;;;29.48;44.67;101223.84;10492332;28;20048;-76
2024/03/04 07:13:47;;;;;;;5.68;1.20;;;;;;;30.50;42.86;101227.06;10492729;28;20056;-77
2024/03/04 07:19:09;;;;;;;3.50;0.98;;;;;;;31.71;38.82;101215.81;10510748;28;20392;-76
2024/03/04 07:24:32;;;;;;;3.10;1.13;;;;;;;32.59;36.58;101218.09;10484067;28;20114;-77
2024/03/04 07:29:56;;;;;;;5.50;1.98;;;;;;;32.45;35.77;101218.16;10484517;28;20041;-77
2024/03/04 07:35:19;;;;;;;7.82;2.88;;;;;;;32.52;35.71;101213.13;10513501;28;20052;-77
2024/03/04 07:40:41;;;;;;;5.93;2.30;;;;;;;33.35;34.31;101211.84;10464642;28;20048;-76
2024/03/04 07:46:05;;;;;;;8.93;2.40;;;;;;;33.10;33.90;101215.44;10477155;28;20056;-77
2024/03/04 07:51:28;;;;;;;3.55;2.28;;;;;;;32.70;33.68;101200.94;10477548;28;20389;-77
2024/03/04 07:56:50;;;;;;;6.88;2.60;;;;;;;33.65;32.55;101198.66;10472305;28;20060;-77
2024/03/04 08:02:14;;;;;;;7.65;3.25;;;;;;;32.77;33.19;101183.13;10490105;28;20058;-77
2024/03/04 08:07:37;;;;;;;7.32;2.63;;;;;;;31.22;33.45;101177.13;10476366;28;20075;-78
2024/03/04 08:12:59;;;;;;;6.57;3.35;;;;;;;31.43;33.94;101185.81;10511909;28;20043;-78
2024/03/04 08:18:43;;;;;;;;;;;;;;;;;;;;;
2024/03/04 08:24:07;;;;;;;4.30;1.80;;;;;;;31.45;33.30;101181.09;10506864;28;20048;-78
2024/03/04 08:29:29;;;;;;;6.22;2.60;;;;;;;32.74;32.83;101178.78;10502626;28;20507;-79
2024/03/04 08:34:53;;;;;;;8.30;2.70;;;;;;;33.59;31.03;101186.28;10501954;28;20101;-77
2024/03/04 08:40:16;;;;;;;6.78;2.22;;;;;;;33.59;31.09;101171.72;10488625;28;20056;-77
2024/03/04 08:45:38;;;;;;;4.30;1.50;;;;;;;33.06;30.20;101164.66;10515787;28;20153;-78
2024/03/04 08:51:02;;;;;;;6.13;2.40;;;;;;;32.98;29.98;101161.56;10476381;28;20052;-77
2024/03/04 08:56:27;;;;;;;7.47;2.53;;;;;;;32.88;30.83;101157.75;10475659;28;20076;-77
2024/03/04 09:01:50;;;;;;;4.10;1.60;;;;;;;33.90;29.13;101151.13;10472147;28;20689;-78
2024/03/04 09:07:14;;;;;;;5.88;1.55;;;;;;;33.16;28.50;101161.13;10517591;28;20052;-78
2024/03/04 09:12:38;;;;;;;6.20;2.40;;;;;;;32.68;29.20;101164.66;10480898;28;20045;-78
2024/03/04 09:18:00;;;;;;;5.78;1.52;;;;;;;31.93;29.67;101168.84;10468676;28;20055;-78
2024/03/04 09:23:25;;;;;;;5.25;1.70;;;;;;;32.06;29.25;101165.19;10512598;28;20068;-79
2024/03/04 09:28:51;;;;;;;3.95;1.50;;;;;;;30.97;31.32;101177.78;10484149;28;20488;-79
2024/03/04 09:34:14;;;;;;;10.50;2.38;;;;;;;31.95;30.76;101172.38;10475891;28;20148;-79
2024/03/04 09:39:38;;;;;;;7.47;1.80;;;;;;;30.48;31.71;101156.22;10480669;28;20047;-77
2024/03/04 09:45:01;;;;;;;9.07;2.72;;;;;;;29.24;33.41;101164.38;10465089;28;20041;-81
2024/03/04 09:50:24;;;;;;;8.10;2.42;;;;;;;28.60;34.70;101161.53;10439265;28;20053;-78
2024/03/04 09:55:48;;;;;;;12.73;2.95;;;;;;;29.76;34.57;101161.44;10473461;28;20059;-80
2024/03/04 10:01:10;;;;;;;8.60;2.33;;;;;;;29.89;33.90;101167.06;10480321;28;20049;-77
2024/03/04 10:06:33;;;;;;;4.75;2.00;;;;;;;30.58;33.18;101161.16;10468470;28;20107;-78
2024/03/04 10:11:58;;;;;;;7.25;2.40;;;;;;;30.44;33.60;101156.53;10442875;28;20432;-77
2024/03/04 10:17:21;;;;;;;7.55;2.13;;;;;;;30.60;32.62;101157.34;10478536;28;20057;-79
2024/03/04 10:22:44;;;;;;;7.43;1.90;;;;;;;30.96;32.92;101156.06;10472109;28;20045;-76
2024/03/04 10:28:09;;;;;;;4.15;1.80;;;;;;;31.31;33.49;101164.75;10451437;28;20409;-78
2024/03/04 10:33:31;;;;;;;8.20;1.65;;;;;;;32.81;31.45;101157.31;10449547;28;20072;-76
2024/03/04 10:38:55;;;;;;;6.32;1.75;;;;;;;31.61;34.24;101138.22;10445563;28;20060;-78
2024/03/04 10:44:26;;;;;;;5.03;1.67;;;;;;;29.62;36.42;101136.88;10444300;28;20045;-80
2024/03/04 10:49:50;;;;;;;3.90;1.83;;;;;;;29.06;38.43;101124.59;10457406;28;20059;-80
2024/03/04 10:55:13;;;;;;;4.57;1.48;;;;;;;27.33;40.48;101128.09;10481064;28;20059;-76
2024/03/04 11:00:41;;;;;;;12.55;4.97;;;;;;;28.55;39.60;101126.41;10503269;28;20122;-79
2024/03/04 11:06:08;;;;;;;15.85;7.80;;;;;;;27.98;39.89;101119.44;10478860;28;20048;-80
2024/03/04 11:11:36;;;;;;;7.78;3.90;;;;;;;30.26;36.96;101112.16;10477675;28;20104;-79
2024/03/04 11:17:01;;;;;;;;;;;;;;;32.51;34.03;101113.81;10462021;28;20529;-79
2024/03/04 11:22:24;;;;;;;9.02;5.65;;;;;;;32.63;33.69;101098.41;10454697;28;19982;-79
2024/03/04 11:27:49;;;;;;;8.05;3.92;;;;;;;31.12;35.47;101100.44;10464772;28;20051;-77
2024/03/04 11:33:39;;;;;;;6.78;3.95;;;;;;;27.87;40.78;101086.53;10440250;28;20045;-80
2024/03/04 11:39:05;;;;;;;6.18;2.25;;;;;;;26.86;43.66;101076.97;10462090;28;20053;-80
2024/03/04 11:44:28;;;;;;;6.65;2.28;;;;;;;26.44;46.46;101081.66;10472087;28;20041;-80
2024/03/04 11:49:54;;;;;;;6.05;2.60;;;;;;;25.66;47.93;101065.22;10452866;28;20056;-79
2024/03/04 11:55:20;;;;;;;9.57;2.30;;;;;;;23.93;52.54;101069.94;10439824;28;20050;-80
2024/03/04 12:00:44;;;;;;;8.93;3.42;;;;;;;23.22;63.51;101053.44;10461131;28;20566;-79
2024/03/04 12:06:11;;;;;;;7.30;2.45;;;;;;;23.23;69.57;101053.41;10475856;28;20435;-81
2024/03/04 12:11:34;;;;;;;;;;;;;;;22.91;70.48;101030.13;10461526;28;20195;-80
2024/03/04 12:16:57;;;;;;;10.57;4.30;;;;;;;22.94;73.84;101030.06;10476651;28;20318;-80
2024/03/04 12:22:26;;;;;;;6.68;3.03;;;;;;;22.73;77.60;101014.56;10487812;28;20052;-80
2024/03/04 12:27:54;;;;;;;8.25;3.95;;;;;;;22.32;80.44;100996.06;10477614;28;20075;-80
2024/03/04 12:33:16;;;;;;;11.52;4.90;;;;;;;21.77;86.53;100997.53;10463252;28;20052;-80
2024/03/04 12:38:40;;;;;;;12.73;3.75;;;;;;;21.52;92.46;100996.44;10519598;28;20052;-80
2024/03/04 12:44:03;;;;;;;11.65;3.78;;;;;;;21.16;96.80;100985.66;10501092;28;20045;-80
2024/03/04 12:49:27;;;;;;;13.05;3.00;;;;;;;20.76;99.19;100979.44;10516102;28;20072;-81
2024/03/04 12:54:51;;;;;;;14.43;2.92;;;;;;;20.65;100.00;100974.31;10517758;28;20048;-80
2024/03/04 13:00:17;;;;;;;7.57;2.50;;;;;;;20.47;100.00;100985.47;10490120;28;20052;-80
2024/03/04 13:05:40;;;;;;;8.02;2.25;;;;;;;20.03;100.00;100987.19;10488603;28;20052;-81
2024/03/04 13:11:04;;;;;;;7.57;2.15;;;;;;;20.13;100.00;100996.84;10475379;28;20052;-80
2024/03/04 13:22:56;;;;;;;7.57;2.07;;;;;;;19.74;100.00;100970.81;10316280;28;20088;-79
2024/03/04 13:28:20;;;;;;;8.32;2.88;;;;;;;19.59;100.00;100966.59;10336295;28;20046;-78
2024/03/04 13:33:42;;;;;;;6.07;3.03;;;;;;;19.42;100.00;100974.94;10306106;28;20082;-79
2024/03/04 13:39:06;;;;;;;9.32;1.63;;;;;;;19.37;100.00;100970.53;10318341;28;20046;-81
2024/03/04 13:44:30;;;;;;;10.13;2.30;;;;;;;19.33;100.00;100974.19;10280905;28;20050;-81
2024/03/04 13:49:53;;;;;;;6.38;1.77;;;;;;;19.23;100.00;100964.56;10275960;28;20169;-81
2024/03/04 13:55:15;;;;;;;8.80;2.08;;;;;;;19.21;100.00;100969.03;10291327;28;20113;-79
2024/03/04 14:00:41;;;;;;;9.85;2.05;;;;;;;19.13;100.00;100961.13;10448747;28;20052;-80
2024/03/04 14:06:04;;;;;;;8.90;1.92;;;;;;;18.92;100.00;100966.81;10480322;28;20391;-78
2024/03/04 14:11:27;;;;;;;8.00;2.00;;;;;;;19.09;100.00;100971.00;10472786;28;20053;-78
2024/03/04 14:16:51;;;;;;;12.13;2.88;;;;;;;18.80;100.00;100948.28;10494715;28;20044;-81
2024/03/04 14:22:13;;;;;;;8.85;1.80;;;;;;;18.73;100.00;100946.59;10474757;28;20079;-79
2024/03/04 14:27:35;;;;;;;9.95;2.10;;;;;;;18.61;100.00;100945.88;10502749;28;20053;-81
2024/03/04 14:33:00;;;;;;;4.60;1.60;;;;;;;18.54;100.00;100943.28;10448061;28;20082;-80
2024/03/04 14:38:22;;;;;;;6.32;1.90;;;;;;;18.18;100.00;100939.31;10494828;28;20055;-80
2024/03/04 14:43:45;;;;;;;6.13;1.70;;;;;;;18.06;100.00;100926.97;10481814;28;20060;-79
2024/03/04 14:49:09;;;;;;;8.98;2.10;;;;;;;17.92;100.00;100915.56;10493859;28;20071;-83
2024/03/04 14:54:31;;;;;;;10.85;1.98;;;;;;;17.89;100.00;100924.53;10480221;28;20056;-84
2024/03/04 14:59:55;;;;;;;6.32;1.90;;;;;;;17.75;100.00;100921.13;10494756;28;20535;-82
2024/03/04 15:05:22;;;;;;;6.68;2.05;;;;;;;17.74;100.00;100914.00;10510871;28;20060;-81
2024/03/04 15:10:45;;;;;;;5.57;1.83;;;;;;;17.54;100.00;100924.88;10480763;28;20577;-82
2024/03/04 15:16:09;;;;;;;11.73;2.38;;;;;;;17.50;100.00;100920.47;10482029;28;20289;-82
2024/03/04 15:21:33;;;;;;;8.93;1.95;;;;;;;17.30;100.00;100909.09;10474502;28;20053;-82
2024/03/04 15:26:56;;;;;;;14.65;2.05;;;;;;;17.14;100.00;100912.81;10476405;28;20508;-78
2024/03/04 15:32:18;;;;;;;5.45;1.88;;;;;;;16.94;100.00;100899.63;10462445;28;20055;-79
2024/03/04 15:37:43;;;;;;;7.13;2.22;;;;;;;16.86;100.00;100895.28;10468852;28;20430;-79
2024/03/04 15:43:06;;;;;;;10.32;2.10;;;;;;;16.62;100.00;100902.53;10489685;28;20048;-78
2024/03/04 15:48:28;;;;;;;5.50;1.50;;;;;;;16.58;100.00;100892.78;10470394;28;20068;-79
2024/03/04 15:53:52;;;;;;;6.40;2.15;;;;;;;16.36;100.00;100888.47;10488119;28;20110;-81
2024/03/04 15:59:15;;;;;;;4.80;1.60;;;;;;;16.24;100.00;100897.44;10493170;28;20099;-81
2024/03/04 16:04:38;;;;;;;5.45;1.83;;;;;;;16.20;100.00;100916.09;10482324;28;20566;-77
2024/03/04 16:10:03;;;;;;;9.10;1.95;;;;;;;15.98;100.00;100919.75;10436777;28;20055;-81
2024/03/04 16:15:27;;;;;;;8.60;1.60;;;;;;;15.86;100.00;100908.25;10444971;28;20041;-84
2024/03/04 16:20:50;;;;;;;9.27;2.05;;;;;;;15.81;100.00;100898.53;10454012;28;20135;-83
2024/03/04 16:26:14;;;;;;;8.80;1.83;;;;;;;15.67;100.00;100908.31;10480580;28;20052;-81
2024/03/04 16:31:39;;;;;;;6.75;1.80;;;;;;;15.64;100.00;100898.56;10441425;28;20049;-77
2024/03/04 16:37:04;;;;;;;15.63;2.80;;;;;;;15.58;100.00;100882.63;10495530;28;20132;-84
2024/03/04 16:42:29;;;;;;;8.65;2.05;;;;;;;15.63;100.00;100859.53;10487968;28;20059;-83
2024/03/04 16:47:52;;;;;;;8.45;2.00;;;;;;;15.52;100.00;100850.66;10490699;28;20148;-83
2024/03/04 16:53:14;;;;;;;6.60;2.13;;;;;;;15.55;100.00;100850.72;10475809;28;20048;-83
2024/03/04 16:58:39;;;;;;;8.93;2.30;;;;;;;15.50;100.00;100842.69;10480804;28;20136;-79
2024/03/04 17:04:03;;;;;;;6.65;2.28;;;;;;;15.56;100.00;100867.56;10453337;28;20052;-81
2024/03/04 17:09:27;;;;;;;8.32;2.63;;;;;;;15.55;100.00;100850.72;10449357;28;20072;-79
2024/03/04 17:14:51;;;;;;;8.15;2.05;;;;;;;15.47;100.00;100855.13;10445245;28;20044;-79
2024/03/04 17:20:18;;;;;;;9.13;2.20;;;;;;;15.47;100.00;100852.47;10452890;28;20048;-79
2024/03/04 17:25:41;;;;;;;6.95;1.95;;;;;;;15.44;100.00;100857.78;10444040;28;20067;-82
2024/03/04 17:31:05;;;;;;;9.25;2.38;;;;;;;15.50;100.00;100855.09;10478453;28;20102;-80
2024/03/04 17:36:28;;;;;;;8.95;2.05;;;;;;;15.40;100.00;100843.63;10467573;28;20041;-80
2024/03/04 17:41:50;;;;;;;7.47;1.90;;;;;;;15.42;100.00;100846.28;10486942;28;20041;-83
2024/03/04 17:47:15;;;;;;;6.90;1.77;;;;;;;15.42;100.00;100859.59;10485363;28;20059;-80
2024/03/04 17:52:37;;;;;;;13.07;2.20;;;;;;;15.41;100.00;100855.16;10457091;28;20499;-77
2024/03/04 17:58:00;;;;;;;6.25;1.70;;;;;;;15.51;100.00;100852.44;10490717;28;20079;-84
2024/03/04 18:03:24;;;;;;;10.13;1.80;;;;;;;15.44;100.00;100840.03;10465475;28;20125;-84
2024/03/04 18:08:46;;;;;;;10.00;2.05;;;;;;;15.46;100.00;100829.41;10476169;28;20048;-82
2024/03/04 18:14:09;;;;;;;7.72;1.85;;;;;;;15.50;100.00;100823.16;10476979;28;20052;-81
2024/03/04 18:19:33;;;;;;;8.18;1.80;;;;;;;15.49;100.00;100822.28;10469265;28;20041;-80
2024/03/04 18:24:56;;;;;;;7.65;1.83;;;;;;;15.45;100.00;100819.66;10518195;28;20051;-82
2024/03/04 18:30:19;;;;;;;8.13;1.88;;;;;;;15.41;100.00;100797.50;10495386;28;20053;-85
2024/03/04 18:35:45;;;;;;;10.60;2.20;;;;;;;15.43;100.00;100785.06;10507599;28;20044;-82
2024/03/04 18:41:08;;;;;;;6.40;1.80;;;;;;;15.33;100.00;100793.97;10472168;28;20126;-85
2024/03/04 18:46:31;;;;;;;8.98;2.40;;;;;;;15.38;100.00;100801.94;10472106;28;20045;-82
2024/03/04 18:51:55;;;;;;;11.77;2.10;;;;;;;15.40;100.00;100801.06;10496919;28;20492;-85
2024/03/04 18:57:17;;;;;;;5.47;1.70;;;;;;;15.40;100.00;100810.81;10486313;28;20053;-83
2024/03/04 19:02:40;;;;;;;8.43;1.90;;;;;;;15.28;100.00;100801.09;10511917;28;20063;-81
2024/03/04 19:08:04;;;;;;;8.77;2.13;;;;;;;15.35;100.00;100776.25;10484258;28;20084;-78
2024/03/04 19:13:31;;;;;;;7.50;1.90;;;;;;;15.23;100.00;100783.38;10505154;28;20049;-79
2024/03/04 19:18:53;;;;;;;11.65;1.98;;;;;;;15.19;100.00;100792.25;10511587;28;20067;-79
2024/03/04 19:24:17;;;;;;;9.60;2.22;;;;;;;15.23;100.00;100794.03;10508284;28;20048;-80
2024/03/04 19:29:40;;;;;;;9.57;2.30;;;;;;;15.22;100.00;100789.59;10462584;28;20044;-79
2024/03/04 19:35:02;;;;;;;8.02;2.08;;;;;;;15.25;100.00;100779.81;10481348;28;20052;-80
2024/03/04 19:40:26;;;;;;;8.88;1.85;;;;;;;15.35;100.00;100796.66;10510505;28;20052;-79
2024/03/04 19:45:49;;;;;;;6.93;1.92;;;;;;;15.40;100.00;100797.50;10515723;28;20466;-78
2024/03/04 19:51:12;;;;;;;5.68;2.35;;;;;;;15.36;100.00;100770.00;10524300;28;20181;-77
2024/03/04 19:56:35;;;;;;;9.35;2.00;;;;;;;15.31;100.00;100785.13;10487858;28;20056;-76
2024/03/04 20:01:58;;;;;;;9.02;2.78;;;;;;;15.31;100.00;100770.94;10480565;28;20052;-78
2024/03/04 20:07:20;;;;;;;8.15;2.38;;;;;;;15.29;100.00;100759.44;10486278;28;20049;-81
2024/03/04 20:12:46;;;;;;;15.38;3.03;;;;;;;15.36;100.00;100745.22;10459517;28;20036;-81
2024/03/04 20:18:08;;;;;;;13.85;3.03;;;;;;;15.36;100.00;100753.19;10520124;28;20110;-82
2024/03/04 20:23:31;;;;;;;9.93;2.13;;;;;;;15.31;100.00;100747.88;10482632;28;20422;-81
2024/03/04 20:28:55;;;;;;;10.25;2.92;;;;;;;15.32;100.00;100754.09;10502992;28;20069;-80
2024/03/04 20:34:18;;;;;;;9.38;2.15;;;;;;;15.29;100.00;100754.13;10473862;28;20057;-80
2024/03/04 20:39:41;;;;;;;9.13;2.50;;;;;;;15.22;100.00;100770.97;10488153;28;20041;-80
2024/03/04 20:45:08;;;;;;;19.02;3.10;;;;;;;15.18;100.00;100778.06;10475620;28;20093;-80
2024/03/04 20:50:32;;;;;;;9.93;1.92;;;;;;;15.18;100.00;100756.78;10477213;28;20048;-80
2024/03/04 20:55:55;;;;;;;13.32;2.83;;;;;;;15.11;100.00;100745.28;10491037;28;20051;-80
2024/03/04 21:01:19;;;;;;;10.48;2.13;;;;;;;15.12;100.00;100747.06;10476439;28;20492;-79
2024/03/04 21:06:42;;;;;;;8.10;2.03;;;;;;;15.10;100.00;100722.25;10519978;28;20049;-81
2024/03/04 21:12:05;;;;;;;7.00;1.52;;;;;;;15.04;100.00;100702.78;10446219;28;20048;-80
2024/03/04 21:17:29;;;;;;;8.55;2.10;;;;;;;15.17;100.00;100659.28;10472050;28;20048;-79
2024/03/04 21:22:53;;;;;;;7.45;1.90;;;;;;;15.13;100.00;100662.88;10476194;28;20048;-81
2024/03/04 21:28:16;;;;;;;9.23;1.55;;;;;;;15.09;100.00;100675.31;10477356;28;20045;-80
2024/03/04 21:33:40;;;;;;;5.65;1.70;;;;;;;14.92;100.00;100685.09;10490801;28;20071;-80
2024/03/04 21:39:06;;;;;;;12.55;2.05;;;;;;;14.78;100.00;100684.25;10490929;28;20044;-80
2024/03/04 21:44:28;;;;;;;10.98;1.80;;;;;;;14.72;100.00;100694.91;10504613;28;20048;-81
2024/03/04 21:49:52;;;;;;;7.15;1.92;;;;;;;14.60;100.00;100706.44;10504630;28;20071;-80
2024/03/04 21:55:17;;;;;;;12.27;2.50;;;;;;;14.55;100.00;100712.66;10490155;28;20056;-82
2024/03/04 22:00:39;;;;;;;9.88;2.25;;;;;;;14.59;100.00;100680.75;10488327;28;20052;-81
2024/03/04 22:06:03;;;;;;;10.18;1.90;;;;;;;14.72;100.00;100681.63;10504832;28;20044;-81
2024/03/04 22:11:26;;;;;;;10.77;2.38;;;;;;;14.84;100.00;100660.31;10509535;28;20044;-80
2024/03/04 22:16:49;;;;;;;8.02;2.20;;;;;;;14.99;100.00;100646.09;10489360;28;20045;-81
2024/03/04 22:22:13;;;;;;;13.13;1.95;;;;;;;15.09;100.00;100651.38;10485448;28;20408;-81
2024/03/04 22:27:35;;;;;;;7.25;1.23;;;;;;;15.04;100.00;100652.25;10504884;28;20052;-80
2024/03/04 22:32:59;;;;;;;12.48;2.30;;;;;;;15.08;100.00;100660.22;10479387;28;20053;-82
2024/03/04 22:38:23;;;;;;;12.68;1.92;;;;;;;15.00;100.00;100656.72;10503948;28;20071;-81
2024/03/04 22:43:46;;;;;;;13.23;2.30;;;;;;;15.03;100.00;100663.81;10497283;28;20044;-81
2024/03/04 22:49:09;;;;;;;10.80;2.13;;;;;;;15.01;100.00;100669.13;10482810;28;20041;-81
2024/03/04 22:54:33;;;;;;;10.63;2.40;;;;;;;15.05;100.00;100660.22;10481806;28;20113;-80
2024/03/04 22:59:55;;;;;;;15.48;3.25;;;;;;;15.05;100.00;100652.25;10480846;28;20507;-81
2024/03/04 23:05:18;;;;;;;12.45;3.00;;;;;;;14.97;100.00;100642.53;10524205;28;20155;-81
2024/03/04 23:10:43;;;;;;;10.73;2.20;;;;;;;14.94;100.00;100645.22;10475615;28;20060;-81
2024/03/04 23:16:09;;;;;;;12.73;2.40;;;;;;;14.86;100.00;100641.72;10494923;28;20045;-80
2024/03/04 23:21:31;;;;;;;13.00;2.17;;;;;;;14.96;100.00;100643.47;10464268;28;20076;-80
2024/03/04 23:26:55;;;;;;;10.30;1.90;;;;;;;14.94;100.00;100643.47;10467757;28;20543;-80
2024/03/04 23:32:18;;;;;;;7.75;1.58;;;;;;;14.90;100.00;100636.38;10481314;28;20064;-80
2024/03/04 23:37:41;;;;;;;12.00;2.20;;;;;;;14.88;100.00;100621.34;10481113;28;20482;-80
2024/03/04 23:43:05;;;;;;;7.30;2.15;;;;;;;14.91;100.00;100627.50;10480936;28;20044;-80
2024/03/04 23:48:27;;;;;;;17.05;2.80;;;;;;;14.96;100.00;100636.38;10494206;28;20063;-81
2024/03/04 23:53:50;;;;;;;14.05;2.72;;;;;;;14.96;100.00;100632.81;10470612;28;20388;-82
2024/03/04 23:59:14;;;;;;;14.80;3.10;;;;;;;14.91;100.00;100648.78;10493751;28;20048;-81
